createdAt,value
2022-11-17T05:15:37.742Z,0.82
2022-11-17T05:18:05.249Z,1.20
2022-11-17T05:20:33.031Z,0.95
2022-11-17T05:23:18.719Z,0.85
2022-11-17T05:25:46.326Z,0.80
2022-11-17T05:28:13.748Z,0.90
2022-11-17T05:30:42.360Z,0.70
2022-11-17T05:33:09.491Z,0.98
2022-11-17T05:35:36.752Z,0.98
2022-11-17T05:38:03.937Z,1.00
2022-11-17T05:40:31.143Z,0.63
2022-11-17T05:42:58.354Z,1.20
2022-11-17T05:45:25.652Z,0.80
2022-11-17T05:47:52.812Z,0.82
2022-11-17T05:50:20.043Z,1.20
2022-11-17T05:52:47.307Z,0.80
2022-11-17T05:55:14.580Z,1.15
2022-11-17T05:57:42.528Z,0.93
2022-11-17T06:00:10.435Z,0.70
2022-11-17T06:02:54.029Z,1.27
2022-11-17T06:05:23.879Z,1.13
2022-11-17T06:07:54.813Z,0.70
2022-11-17T06:10:22.105Z,1.20
2022-11-17T06:12:49.352Z,0.90
2022-11-17T06:15:16.995Z,1.13
2022-11-17T06:18:00.431Z,1.48
2022-11-17T06:20:38.308Z,1.05
2022-11-17T06:23:07.773Z,1.33
2022-11-17T06:25:36.834Z,1.40
2022-11-17T06:28:08.001Z,1.02
2022-11-17T06:30:36.419Z,1.67
2022-11-17T06:33:04.413Z,1.40
2022-11-17T06:35:34.408Z,1.80
2022-11-17T06:38:02.621Z,1.60
2022-11-17T06:40:29.819Z,1.20
2022-11-17T06:43:09.707Z,1.27
2022-11-17T06:45:45.848Z,1.50
2022-11-17T06:48:15.874Z,2.20
2022-11-17T06:50:43.767Z,1.75
2022-11-17T06:53:12.225Z,1.90
2022-11-17T06:55:39.830Z,1.83
2022-11-17T06:58:09.207Z,1.75
2022-11-17T07:00:37.684Z,1.77
2022-11-17T07:03:10.272Z,1.60
2022-11-17T07:05:40.068Z,1.65
2022-11-17T07:08:09.136Z,1.50
2022-11-17T07:10:36.733Z,1.13
2022-11-17T07:13:04.196Z,1.52
2022-11-17T07:15:32.092Z,1.48
2022-11-17T07:17:59.329Z,1.23
2022-11-17T07:20:26.600Z,1.17
2022-11-17T07:22:58.941Z,0.80
2022-11-17T07:25:26.341Z,0.77
2022-11-17T07:28:00.325Z,1.30
2022-11-17T07:30:27.831Z,0.70
2022-11-17T07:32:55.177Z,0.80
2022-11-17T07:35:22.486Z,1.00
2022-11-17T07:37:49.742Z,0.50
2022-11-17T07:40:17.212Z,0.68
2022-11-17T07:42:49.720Z,0.43
2022-11-17T07:45:17.908Z,0.60
2022-11-17T07:47:45.321Z,0.20
2022-11-17T07:50:12.573Z,0.47
2022-11-17T07:52:41.640Z,0.60
2022-11-17T07:55:09.375Z,0.60
2022-11-17T07:57:36.622Z,0.60
2022-11-17T08:00:04.561Z,0.88
2022-11-17T08:02:40.409Z,0.73
2022-11-17T08:05:08.163Z,0.40
2022-11-17T08:07:35.449Z,0.43
2022-11-17T08:10:02.884Z,0.45
2022-11-17T08:12:30.088Z,0.40
2022-11-17T08:14:57.324Z,0.70
2022-11-17T08:17:24.597Z,0.50
2022-11-17T08:19:51.983Z,0.68
2022-11-17T08:22:19.313Z,0.52
2022-11-17T08:24:46.717Z,0.82
2022-11-17T08:27:14.010Z,0.63
2022-11-17T08:29:41.368Z,0.75
2022-11-17T08:32:08.703Z,0.55
2022-11-17T08:34:36.194Z,0.63
2022-11-17T08:37:03.459Z,0.50
2022-11-17T08:39:30.851Z,1.10
2022-11-17T08:41:58.152Z,0.88
2022-11-17T08:44:25.384Z,0.68
2022-11-17T08:46:52.722Z,0.70
2022-11-17T08:49:19.975Z,1.23
2022-11-17T08:51:47.269Z,0.90
2022-11-17T08:54:14.793Z,1.08
2022-11-17T08:56:42.083Z,0.68
2022-11-17T08:59:12.346Z,1.10
2022-11-17T09:01:40.347Z,1.13
2022-11-17T09:04:08.271Z,1.00
2022-11-17T09:06:35.545Z,0.98
2022-11-17T09:09:03.389Z,1.40
2022-11-17T09:11:31.071Z,1.17
2022-11-17T09:13:58.294Z,2.08
2022-11-17T09:16:25.565Z,0.75
2022-11-17T09:18:57.950Z,0.90
2022-11-17T09:21:26.631Z,1.45
2022-11-17T09:23:54.664Z,2.35
2022-11-17T09:26:22.302Z,0.90
2022-11-17T09:28:49.690Z,1.70
2022-11-17T09:31:19.384Z,2.13
2022-11-17T09:33:47.115Z,2.08
2022-11-17T09:36:16.165Z,1.50
2022-11-17T09:38:43.780Z,1.38
2022-11-17T09:41:20.392Z,1.13
2022-11-17T09:43:59.185Z,0.98
2022-11-17T09:46:35.452Z,1.63
2022-11-17T09:49:13.781Z,1.63
2022-11-17T09:51:44.624Z,0.98
2022-11-17T09:54:35.364Z,0.73
2022-11-17T09:57:04.989Z,0.60
2022-11-17T09:59:33.556Z,0.80
2022-11-17T10:02:00.905Z,0.93
2022-11-17T10:04:30.143Z,0.75
2022-11-17T10:06:58.570Z,0.70
2022-11-17T10:09:38.632Z,1.05
2022-11-17T10:12:20.043Z,1.17
2022-11-17T10:14:51.879Z,1.40
2022-11-17T10:17:19.192Z,0.85
2022-11-17T10:19:46.519Z,0.32
2022-11-17T10:22:36.887Z,0.50
2022-11-17T10:25:04.702Z,0.40
2022-11-17T10:27:34.272Z,0.52
2022-11-17T10:30:13.933Z,0.70
2022-11-17T10:32:50.260Z,0.57
2022-11-17T10:35:25.069Z,0.60
2022-11-17T10:38:13.137Z,0.55
2022-11-17T10:40:40.541Z,0.60
2022-11-17T10:43:13.950Z,0.47
2022-11-17T10:46:05.473Z,0.30
2022-11-17T10:48:38.169Z,0.30
2022-11-17T10:51:27.720Z,0.60
2022-11-17T10:54:21.541Z,0.45
2022-11-17T10:56:55.843Z,1.40
2022-11-17T10:59:42.400Z,1.02
2022-11-17T11:02:36.521Z,1.00
2022-11-17T11:05:22.176Z,0.60
2022-11-17T11:07:49.760Z,0.40
2022-11-17T11:10:19.012Z,0.30
2022-11-17T11:13:08.877Z,1.23
2022-11-17T11:15:36.976Z,0.90
2022-11-17T11:18:16.018Z,0.90
2022-11-17T11:21:04.676Z,1.08
2022-11-17T11:23:39.572Z,0.65
2022-11-17T11:26:32.701Z,0.80
2022-11-17T11:29:22.909Z,1.35
2022-11-17T11:32:14.515Z,1.17
2022-11-17T11:35:05.650Z,0.52
2022-11-17T11:37:47.073Z,3.53
2022-11-17T11:40:21.738Z,1.60
2022-11-17T11:43:00.349Z,2.40
2022-11-17T11:45:54.335Z,2.25
2022-11-17T11:48:41.973Z,1.15
2022-11-17T11:51:18.285Z,1.38
2022-11-17T11:53:57.510Z,1.60
2022-11-17T11:56:35.034Z,1.30
2022-11-17T11:59:48.222Z,1.17
2022-11-17T12:02:43.425Z,0.93
2022-11-17T12:05:21.729Z,1.30
2022-11-17T12:08:10.396Z,0.68
2022-11-17T12:10:41.128Z,0.45
2022-11-17T12:13:13.451Z,0.77
2022-11-17T12:15:40.788Z,1.50
2022-11-17T12:18:31.138Z,1.20
2022-11-17T12:21:03.717Z,0.70
2022-11-17T12:23:49.836Z,0.40
2022-11-17T12:26:23.338Z,0.63
2022-11-17T12:29:19.805Z,0.70
2022-11-17T12:31:55.150Z,0.80
2022-11-17T12:34:24.267Z,0.82
2022-11-17T12:37:20.833Z,0.77
2022-11-17T12:40:02.442Z,0.50
2022-11-17T12:42:31.845Z,1.00
2022-11-17T12:45:02.960Z,0.60
2022-11-17T12:48:05.253Z,0.80
2022-11-17T12:50:50.479Z,1.25
2022-11-17T12:53:41.194Z,1.67
2022-11-17T12:56:31.793Z,1.40
2022-11-17T12:59:24.592Z,0.88
2022-11-17T13:01:59.112Z,0.90
2022-11-17T13:04:49.579Z,0.60
2022-11-17T13:07:21.056Z,0.80
2022-11-17T13:09:59.494Z,0.65
2022-11-17T13:12:34.354Z,0.82
2022-11-17T13:15:04.629Z,1.13
2022-11-17T13:17:41.710Z,1.77
2022-11-17T13:20:28.472Z,2.33
2022-11-17T13:23:00.876Z,2.25
2022-11-17T13:25:28.178Z,1.25
2022-11-17T13:28:01.268Z,1.20
2022-11-17T13:30:32.772Z,1.90
2022-11-17T13:33:02.367Z,1.40
2022-11-17T13:35:36.696Z,1.77
2022-11-17T13:38:19.672Z,2.95
2022-11-17T13:40:49.223Z,2.60
2022-11-17T13:43:21.264Z,2.17
2022-11-17T13:45:53.160Z,2.05
2022-11-17T13:48:38.455Z,1.73
2022-11-17T13:51:28.363Z,1.60
2022-11-17T13:54:17.643Z,1.83
2022-11-17T13:56:48.073Z,0.90
2022-11-17T13:59:18.478Z,1.77
2022-11-17T14:01:45.865Z,1.52
2022-11-17T14:04:22.470Z,1.88
2022-11-17T14:07:02.013Z,1.30
2022-11-17T14:09:32.045Z,0.90
2022-11-17T14:11:59.486Z,1.55
2022-11-17T14:14:53.215Z,1.17
2022-11-17T14:17:22.148Z,2.25
2022-11-17T14:19:49.541Z,1.90
2022-11-17T14:22:23.496Z,1.80
2022-11-17T14:24:54.881Z,1.85
2022-11-17T14:27:37.347Z,1.45
2022-11-17T14:30:05.842Z,0.98
2022-11-17T14:32:34.853Z,0.93
2022-11-17T14:35:02.140Z,1.25
2022-11-17T14:37:32.158Z,1.52
2022-11-17T14:40:00.838Z,1.30
2022-11-17T14:42:33.017Z,0.98
2022-11-17T14:45:03.816Z,1.35
2022-11-17T14:47:31.142Z,1.38
2022-11-17T14:49:58.421Z,1.20
2022-11-17T14:52:25.694Z,1.75
2022-11-17T14:54:52.970Z,1.40
2022-11-17T14:57:20.193Z,0.95
2022-11-17T14:59:47.527Z,1.17
2022-11-17T15:02:14.878Z,1.20
2022-11-17T15:04:50.880Z,1.40
2022-11-17T15:07:19.080Z,1.40
2022-11-17T15:09:46.393Z,1.08
2022-11-17T15:12:13.733Z,0.95
2022-11-17T15:14:40.927Z,1.10
2022-11-17T15:17:13.896Z,0.93
2022-11-17T15:19:42.478Z,0.98
2022-11-17T15:22:09.905Z,1.02
2022-11-17T15:24:37.192Z,1.25
2022-11-17T15:27:04.525Z,1.52
2022-11-17T15:29:31.802Z,0.93
2022-11-17T15:31:59.063Z,1.08
2022-11-17T15:34:26.527Z,1.48
2022-11-17T15:36:54.191Z,1.05
2022-11-17T15:39:21.689Z,1.42
2022-11-17T15:41:50.417Z,1.00
2022-11-17T15:44:20.982Z,0.90
2022-11-17T15:46:48.325Z,0.80
2022-11-17T15:49:16.175Z,1.15
2022-11-17T15:51:43.956Z,1.00
2022-11-17T15:54:18.215Z,1.52
2022-11-17T15:56:47.916Z,0.63
2022-11-17T15:59:15.671Z,0.95
2022-11-17T16:01:43.923Z,0.80
2022-11-17T16:04:13.216Z,1.67
2022-11-17T16:06:42.049Z,1.23
2022-11-17T16:09:10.403Z,0.75
2022-11-17T16:11:37.861Z,1.30
2022-11-17T16:14:05.921Z,1.23
2022-11-17T16:16:37.728Z,1.40
2022-11-17T16:19:05.921Z,0.85
2022-11-17T16:21:33.439Z,0.80
2022-11-17T16:24:02.019Z,1.15
2022-11-17T16:26:30.353Z,1.10
2022-11-17T16:29:04.202Z,1.02
2022-11-17T16:31:33.586Z,0.95
2022-11-17T16:34:03.541Z,1.27
2022-11-17T16:36:36.747Z,1.10
2022-11-17T16:39:07.009Z,0.80
2022-11-17T16:41:37.648Z,0.93
2022-11-17T16:44:13.334Z,0.80
2022-11-17T16:46:46.216Z,1.08
2022-11-17T16:49:15.762Z,0.82
2022-11-17T16:51:53.694Z,1.60
2022-11-17T16:54:21.677Z,1.88
2022-11-17T16:56:49.941Z,1.55
2022-11-17T16:59:17.556Z,1.13
2022-11-17T17:01:45.421Z,1.35
2022-11-17T17:04:13.539Z,1.48
2022-11-17T17:06:43.433Z,1.23
2022-11-17T17:09:12.374Z,1.00
2022-11-17T17:11:39.872Z,0.90
2022-11-17T17:14:11.740Z,0.80
2022-11-17T17:16:39.339Z,0.93
2022-11-17T17:19:10.212Z,0.80
2022-11-17T17:21:38.989Z,1.38
2022-11-17T17:24:07.453Z,1.63
2022-11-17T17:26:36.133Z,1.35
2022-11-17T17:29:05.809Z,1.10
2022-11-17T17:31:38.915Z,1.10
2022-11-17T17:34:07.504Z,1.40
2022-11-17T17:36:35.455Z,1.48
2022-11-17T17:39:03.600Z,1.77
2022-11-17T17:41:39.017Z,1.83
2022-11-17T17:44:08.215Z,1.20
2022-11-17T17:46:37.569Z,1.90
2022-11-17T17:49:05.477Z,1.70
2022-11-17T17:51:36.262Z,2.10
2022-11-17T17:54:03.715Z,2.30
2022-11-17T17:56:31.052Z,1.63
2022-11-17T17:58:58.627Z,2.55
2022-11-17T18:01:28.156Z,1.60
2022-11-17T18:04:11.275Z,1.88
2022-11-17T18:06:46.120Z,1.98
2022-11-17T18:09:15.400Z,1.67
2022-11-17T18:11:47.725Z,1.73
2022-11-17T18:14:17.300Z,1.48
2022-11-17T18:16:44.660Z,1.70
2022-11-17T18:19:14.610Z,1.60
2022-11-17T18:21:42.972Z,1.73
2022-11-17T18:24:12.583Z,1.60
2022-11-17T18:26:41.012Z,1.85
2022-11-17T18:29:13.640Z,1.48
2022-11-17T18:31:41.558Z,1.55
2022-11-17T18:34:24.313Z,2.58
2022-11-17T18:36:53.606Z,3.85
2022-11-17T18:39:22.178Z,1.95
2022-11-17T18:41:49.710Z,1.70
2022-11-17T18:44:19.434Z,1.17
2022-11-17T18:46:47.396Z,1.23
2022-11-17T18:49:15.106Z,1.35
2022-11-17T18:51:42.681Z,1.58
2022-11-17T18:54:13.611Z,1.33
2022-11-17T18:56:40.899Z,1.13
2022-11-17T18:59:11.846Z,1.20
2022-11-17T19:01:41.302Z,1.23
2022-11-17T19:04:10.101Z,1.50
2022-11-17T19:06:37.436Z,1.40
2022-11-17T19:09:06.020Z,1.63
2022-11-17T19:11:34.446Z,1.00
2022-11-17T19:14:02.306Z,1.48
2022-11-17T19:16:30.033Z,1.55
2022-11-17T19:18:57.584Z,1.58
2022-11-17T19:21:29.945Z,1.90
2022-11-17T19:23:59.071Z,1.83
2022-11-17T19:26:29.347Z,1.40
2022-11-17T19:28:58.973Z,1.60
2022-11-17T19:31:26.529Z,1.60
2022-11-17T19:33:55.139Z,1.25
2022-11-17T19:36:32.151Z,1.23
2022-11-17T19:39:01.366Z,2.63
2022-11-17T19:41:36.612Z,4.65
2022-11-17T19:44:06.658Z,2.80
2022-11-17T19:46:36.111Z,2.40
2022-11-17T19:49:05.891Z,2.33
2022-11-17T19:51:36.859Z,1.85
2022-11-17T19:54:07.299Z,2.17
2022-11-17T19:56:35.456Z,2.42
2022-11-17T19:59:03.399Z,3.55
2022-11-17T20:01:31.632Z,2.55
2022-11-17T20:04:00.638Z,2.58
2022-11-17T20:06:31.845Z,2.22
2022-11-17T20:08:59.168Z,2.50
2022-11-17T20:11:28.216Z,1.92
2022-11-17T20:13:56.184Z,2.40
2022-11-17T20:16:25.949Z,1.60
2022-11-17T20:18:55.773Z,1.15
2022-11-17T20:21:24.219Z,1.73
2022-11-17T20:23:51.834Z,1.70
2022-11-17T20:26:30.318Z,1.52
2022-11-17T20:28:58.763Z,1.50
2022-11-17T20:31:28.799Z,1.98
2022-11-17T20:33:58.211Z,2.13
2022-11-17T20:36:25.839Z,2.53
2022-11-17T20:38:58.370Z,2.33
2022-11-17T20:41:26.359Z,1.67
2022-11-17T20:43:55.469Z,1.77
2022-11-17T20:46:23.990Z,1.77
2022-11-17T20:48:51.960Z,2.70
2022-11-17T20:51:21.573Z,3.75
2022-11-17T20:53:49.421Z,3.25
2022-11-17T20:56:17.279Z,2.30
2022-11-17T20:58:45.321Z,1.67
2022-11-17T21:01:26.105Z,2.20
2022-11-17T21:03:53.585Z,2.33
2022-11-17T21:06:23.171Z,1.90
2022-11-17T21:08:50.673Z,2.33
2022-11-17T21:11:41.778Z,2.53
2022-11-17T21:14:11.655Z,2.15
2022-11-17T21:16:41.795Z,2.78
2022-11-17T21:19:09.301Z,1.90
2022-11-17T21:21:36.661Z,2.42
2022-11-17T21:24:04.534Z,2.53
2022-11-17T21:26:32.453Z,2.72
2022-11-17T21:29:05.941Z,1.88
2022-11-17T21:31:34.309Z,1.75
2022-11-17T21:34:04.201Z,2.30
2022-11-17T21:36:32.586Z,2.45
2022-11-17T21:39:00.461Z,2.58
2022-11-17T21:41:30.448Z,1.92
2022-11-17T21:44:00.003Z,2.40
2022-11-17T21:46:32.525Z,2.25
2022-11-17T21:49:01.070Z,2.50
2022-11-17T21:51:33.288Z,2.25
2022-11-17T21:54:02.890Z,2.67
2022-11-17T21:56:31.976Z,2.72
2022-11-17T21:59:00.394Z,2.55
2022-11-17T22:01:28.694Z,2.15
2022-11-17T22:03:56.284Z,3.45
2022-11-17T22:06:25.379Z,2.67
2022-11-17T22:08:54.516Z,2.70
2022-11-17T22:11:36.976Z,2.30
2022-11-17T22:14:16.388Z,3.50
2022-11-17T22:16:48.582Z,2.47
2022-11-17T22:19:17.047Z,2.75
2022-11-17T22:21:45.705Z,2.67
2022-11-17T22:24:13.159Z,2.70
2022-11-17T22:26:42.079Z,2.75
2022-11-17T22:29:19.002Z,3.03
2022-11-17T22:31:48.693Z,2.72
2022-11-17T22:34:17.024Z,2.75
2022-11-17T22:36:44.558Z,3.15
2022-11-17T22:39:12.226Z,3.38
2022-11-17T22:41:39.695Z,2.80
2022-11-17T22:44:07.114Z,2.72
2022-11-17T22:46:35.095Z,2.33
2022-11-17T22:49:03.254Z,2.72
2022-11-17T22:51:48.936Z,2.70
2022-11-17T22:54:16.197Z,2.15
2022-11-17T22:56:43.468Z,2.45
2022-11-17T22:59:10.911Z,2.40
2022-11-17T23:01:38.118Z,2.65
2022-11-17T23:04:06.675Z,2.53
2022-11-17T23:06:34.284Z,2.80
2022-11-17T23:09:01.521Z,2.25
2022-11-17T23:11:37.999Z,2.38
2022-11-17T23:14:08.231Z,2.47
2022-11-17T23:16:37.437Z,2.53
2022-11-17T23:19:05.802Z,2.70
2022-11-17T23:21:33.022Z,3.20
2022-11-17T23:24:00.447Z,3.13
2022-11-17T23:26:27.753Z,2.60
2022-11-17T23:28:55.105Z,3.60
